Data for 11/01/2009

Time Sea-Level Adjusted Pressure Absolute Pressure Temperature Relative Humidity Dew Point   
(mb) (inHg) (mb) (inHg) (C) (F) (%) (C) (F)
00:05 1018 30.06 847 25.01 9.5 49.1 41 -3.1 26.5
00:10 1018 30.06 847 25.01 9.3 48.7 41 -3.2 26.2
00:15 1018 30.06 847 25.01 9 48.3 42 -3.2 26.2
00:20 1018 30.06 847 25.01 9 48.2 40 -3.7 25.3
00:25 1018 30.06 847 25.01 9.2 48.6 40 -3.6 25.5
00:30 1018 30.06 847 25.01 9.3 48.7 39 -3.9 25
00:35 1018 30.06 847 25.01 9.4 48.8 39 -3.9 24.9
00:40 1018 30.06 847 25.01 9.4 48.8 39 -3.8 25.2
00:45 1018 30.06 847 25.01 9.3 48.7 39 -3.9 24.9
00:50 1018 30.06 847 25.01 9.3 48.8 38 -4.2 24.4
00:55 1018 30.06 847 25.01 9.4 49 38 -4.1 24.6
01:00 1018 30.06 847 25.01 9.4 48.9 39 -3.9 24.9
01:05 1018 30.06 847 25.01 9.3 48.7 39 -4 24.7
01:10 1018 30.06 847 25.01 9.3 48.7 38 -4.4 24
01:15 1018 30.06 847 25.01 9.4 48.9 38 -4.2 24.4
01:20 1018 30.06 847 25.01 9.2 48.6 39 -4.1 24.6
01:25 1018 30.06 847 25.01 9.1 48.4 38 -4.3 24.2
01:30 1018 30.06 847 25.01 9.2 48.5 38 -4.6 23.8
01:35 1018 30.06 847 25.01 9.3 48.7 38 -4.4 24.1
01:40 1018 30.06 847 25.01 9.2 48.5 38 -4.4 24.1
01:45 1018 30.06 847 25.01 9.2 48.5 37 -4.7 23.5
01:50 1018 30.06 847 25.01 9.2 48.6 37 -4.5 23.9
01:55 1018 30.06 847 25.01 9.1 48.3 38 -4.5 24
02:00 1018 30.06 847 25.01 8.9 48 39 -4.4 24.1
02:05 1018 30.06 847 25.01 8.7 47.6 39 -4.4 24.1
02:10 1018 30.06 847 25.01 8.5 47.2 40 -4.4 24.1
02:15 1017 30.03 847 25.01 8.5 47.2 39 -4.5 23.9
02:20 1017 30.03 847 25.01 8.6 47.4 39 -4.4 24
02:25 1017 30.03 846 24.98 8.8 47.9 38 -4.8 23.3
02:30 1017 30.03 847 25.01 9.2 48.5 38 -4.3 24.3
02:35 1017 30.03 847 25.01 9 48.2 39 -4.3 24.2
02:40 1017 30.03 847 25.01 8.9 48 39 -4.4 24.1
02:45 1017 30.03 847 25.01 8.8 47.9 40 -3.9 25
02:50 1018 30.06 847 25.01 8.8 47.8 39 -4.3 24.3
02:55 1018 30.06 847 25.01 8.9 48 40 -3.9 25
03:00 1018 30.06 847 25.01 8.7 47.7 41 -3.8 25.1
03:05 1018 30.06 847 25.01 8.8 47.8 41 -3.8 25.2
03:10 1018 30.06 847 25.01 8.7 47.6 42 -3.6 25.6
03:15 1018 30.06 847 25.01 8.6 47.4 41 -3.9 25.1
03:20 1018 30.06 847 25.01 8.8 47.8 42 -3.5 25.6
03:25 1018 30.06 847 25.01 8.7 47.6 42 -3.5 25.7
03:30 1018 30.06 848 25.04 8.5 47.3 43 -3.2 26.3
03:35 1018 30.06 848 25.04 8.2 46.8 44 -3.2 26.3
03:40 1019 30.09 848 25.04 7.9 46.2 44 -3.6 25.4
03:45 1019 30.09 848 25.04 8 46.4 43 -3.7 25.3
03:50 1019 30.09 848 25.04 7.9 46.2 45 -3.3 26
03:55 1019 30.09 848 25.04 7.6 45.8 46 -3.1 26.3
04:00 1019 30.09 848 25.04 7.4 45.4 47 -3.1 26.3
04:05 1019 30.09 848 25.04 7.4 45.3 47 -3.2 26.3
04:10 1019 30.09 848 25.04 7.3 45.2 48 -3.1 26.5
04:15 1019 30.09 848 25.04 7.2 45 49 -2.9 26.8
04:20 1019 30.09 848 25.04 7 44.6 50 -2.8 27
04:25 1019 30.09 848 25.04 7 44.6 50 -2.8 27
04:30 1019 30.09 848 25.04 6.9 44.4 50 -2.7 27.2
04:35 1019 30.09 848 25.04 6.8 44.3 51 -2.5 27.5
04:40 1019 30.09 848 25.04 6.9 44.4 53 -2.1 28.2
04:45 1019 30.09 848 25.04 6.9 44.4 52 -2.1 28.2
04:50 1019 30.09 848 25.04 6.8 44.2 54 -1.9 28.6
04:55 1019 30.09 848 25.04 6.6 43.9 55 -1.8 28.8
05:00 1019 30.09 848 25.04 6.5 43.8 57 -1.4 29.4
05:05 1019 30.09 848 25.04 6.6 43.9 56 -1.6 29.1
05:10 1019 30.09 848 25.04 6.7 44.1 55 -1.6 29.2
05:15 1019 30.09 848 25.04 6.7 44.1 56 -1.4 29.5
05:20 1019 30.09 848 25.04 6.6 43.9 56 -1.4 29.4
05:25 1019 30.09 848 25.04 6.6 43.9 57 -1.3 29.6
05:30 1019 30.09 848 25.04 6.6 43.8 57 -1.3 29.7
05:35 1019 30.09 848 25.04 6.6 43.9 57 -1.3 29.6
05:40 1019 30.09 848 25.04 6.6 43.9 57 -1.3 29.6
05:45 1019 30.09 848 25.04 6.6 43.9 57 -1.3 29.6
05:50 1019 30.09 849 25.07 6.6 44 57 -1.3 29.6
05:55 1019 30.09 849 25.07 6.6 43.9 57 -1.2 29.8
06:00 1020 30.12 849 25.07 6.4 43.6 59 -0.9 30.3
06:05 1020 30.12 849 25.07 5.5 41.9 64 -0.7 30.7
06:10 1020 30.12 849 25.07 4.6 40.3 65 -1.3 29.7
06:15 1020 30.12 849 25.07 4.8 40.6 65 -1.3 29.7
06:20 1020 30.12 849 25.07 5.1 41.1 63 -1.3 29.7
06:25 1020 30.12 849 25.07 5.2 41.4 62 -1.4 29.5
06:30 1020 30.12 849 25.07 5.5 41.9 61 -1.4 29.4
06:35 1020 30.12 849 25.07 5.2 41.3 62 -1.4 29.5
06:40 1020 30.12 849 25.07 5.2 41.3 61 -1.6 29.1
06:45 1020 30.12 849 25.07 5.2 41.4 61 -1.7 29
06:50 1020 30.12 849 25.07 5.2 41.4 61 -1.6 29.1
06:55 1020 30.12 849 25.07 5.2 41.4 62 -1.5 29.2
07:00 1020 30.12 849 25.07 5.1 41.2 63 -1.5 29.4
07:05 1020 30.12 849 25.07 4.7 40.4 65 -1.4 29.5
07:10 1020 30.12 849 25.07 4.5 40.1 65 -1.6 29.2
07:15 1020 30.12 849 25.07 4.4 40 64 -1.7 29
07:20 1020 30.12 849 25.07 4.4 39.8 64 -1.8 28.8
07:25 1020 30.12 849 25.07 4.5 40.1 64 -1.8 28.7
07:30 1020 30.12 849 25.07 4.4 39.9 64 -1.9 28.6
07:35 1020 30.12 849 25.07 4.3 39.8 63 -2.1 28.1
07:40 1020 30.12 849 25.07 4.5 40 63 -2 28.4
07:45 1020 30.12 849 25.07 4.7 40.4 62 -2 28.4
07:50 1020 30.12 849 25.07 4.5 40.1 63 -1.8 28.7
07:55 1020 30.12 849 25.07 4.4 39.8 65 -1.7 28.9
08:00 1020 30.12 849 25.07 4.3 39.7 64 -1.8 28.7
08:05 1020 30.12 849 25.07 4.5 40.1 64 -1.7 28.9
08:10 1020 30.12 849 25.07 4.4 39.9 64 -1.8 28.7
08:15 1020 30.12 849 25.07 4.5 40 63 -1.9 28.7
08:20 1020 30.12 849 25.07 4.6 40.3 63 -1.7 28.9
08:25 1020 30.12 850 25.1 4.6 40.3 63 -1.8 28.7
08:30 1020 30.12 850 25.1 4.7 40.4 63 -1.8 28.7
08:35 1020 30.12 850 25.1 4.7 40.5 63 -1.8 28.8
08:40 1020 30.12 850 25.1 4.7 40.4 63 -1.7 29
08:45 1020 30.12 850 25.1 4.6 40.4 63 -1.7 28.9
08:50 1021 30.15 850 25.1 4.6 40.2 65 -1.5 29.3
08:55 1021 30.15 850 25.1 4.6 40.4 64 -1.6 29
09:00 1021 30.15 850 25.1 4.8 40.7 63 -1.5 29.2
09:05 1021 30.15 850 25.1 4.9 40.8 63 -1.6 29.1
09:10 1021 30.15 850 25.1 5 41 62 -1.6 29.1
09:15 1021 30.15 850 25.1 5.3 41.5 62 -1.3 29.6
09:20 1021 30.15 850 25.1 5.4 41.7 60 -1.7 28.9
09:25 1021 30.15 850 25.1 5.9 42.5 60 -1.2 29.8
09:30 1021 30.15 850 25.1 5.8 42.4 62 -1 30.2
09:35 1021 30.15 850 25.1 5.7 42.3 61 -1.2 29.8
09:40 1021 30.15 850 25.1 5.7 42.3 62 -1 30.3
09:45 1021 30.15 850 25.1 5.7 42.3 63 -0.8 30.5
09:50 1021 30.15 850 25.1 6 42.8 61 -0.9 30.4
09:55 1021 30.15 850 25.1 6 42.8 62 -0.6 30.8
10:00 1021 30.15 850 25.1 5.9 42.7 61 -1 30.3
10:05 1021 30.15 851 25.13 6.1 42.9 60 -1.1 30.1
10:10 1021 30.15 851 25.13 6.1 43.1 62 -0.6 30.9
10:15 1022 30.18 851 25.13 6.3 43.4 61 -0.6 30.9
10:20 1022 30.18 851 25.13 6.4 43.5 61 -0.5 31.1
10:25 1022 30.18 851 25.13 6.4 43.5 61 -0.6 31
10:30 1022 30.18 851 25.13 6.5 43.7 61 -0.5 31.1
10:35 1022 30.18 851 25.13 6.5 43.7 61 -0.5 31.1
10:40 1022 30.18 851 25.13 6.7 44.1 60 -0.4 31.3
10:45 1022 30.18 851 25.13 6.9 44.4 60 -0.4 31.3
10:50 1022 30.18 851 25.13 6.9 44.5 60 -0.3 31.5
10:55 1022 30.18 851 25.13 6.9 44.4 60 -0.4 31.2
11:00 1022 30.18 851 25.13 6.8 44.2 60 -0.5 31.1
11:05 1022 30.18 851 25.13 6.9 44.3 58 -0.8 30.5
11:10 1022 30.18 851 25.13 6.6 43.8 59 -0.9 30.4
11:15 1022 30.18 851 25.13 6.4 43.5 60 -0.7 30.7
11:20 1022 30.18 851 25.13 6.4 43.5 60 -0.9 30.5
11:25 1022 30.18 851 25.13 6.6 43.8 56 -1.6 29.1
11:30 1022 30.18 851 25.13 6.8 44.2 56 -1.3 29.7
11:35 1022 30.18 851 25.13 6.9 44.3 58 -0.7 30.7
11:40 1022 30.18 851 25.13 6.9 44.4 58 -0.8 30.5
11:45 1022 30.18 852 25.16 6.9 44.5 58 -0.8 30.6
11:50 1022 30.18 852 25.16 6.9 44.4 57 -1 30.2
11:55 1022 30.18 852 25.16 6.9 44.4 56 -1.4 29.5
12:00 1022 30.18 852 25.16 6.7 44 59 -0.7 30.8
12:05 1022 30.18 852 25.16 6.6 43.9 59 -0.8 30.5
12:10 1022 30.18 852 25.16 6.4 43.6 59 -1 30.2
12:15 1022 30.18 852 25.16 6.6 43.9 55 -1.8 28.7
12:20 1022 30.18 852 25.16 6.8 44.2 54 -1.8 28.8
12:25 1022 30.18 852 25.16 7 44.6 53 -1.8 28.7
12:30 1023 30.21 852 25.16 7.3 45.1 54 -1.4 29.5
12:35 1023 30.21 852 25.16 7.5 45.6 53 -1.5 29.3
12:40 1023 30.21 852 25.16 7.9 46.3 52 -1.4 29.5
12:45 1023 30.21 852 25.16 7.7 45.9 51 -1.6 29.1
12:50 1023 30.21 852 25.16 7.6 45.6 51 -1.8 28.7
12:55 1023 30.21 852 25.16 7.4 45.4 49 -2.5 27.5
13:00 1023 30.21 852 25.16 7.6 45.8 48 -2.6 27.3
13:05 1023 30.21 852 25.16 7.5 45.5 50 -2.2 28.1
13:10 1023 30.21 852 25.16 7.4 45.3 50 -2.4 27.7
13:15 1023 30.21 852 25.16 7.7 45.9 46 -3.2 26.2
13:20 1023 30.21 852 25.16 7.9 46.3 46 -2.9 26.7
13:25 1023 30.21 852 25.16 7.7 45.9 48 -2.5 27.4
13:30 1023 30.21 852 25.16 7.9 46.3 47 -2.6 27.4
13:35 1023 30.21 852 25.16 7.9 46.3 48 -2.3 27.9
13:40 1022 30.18 852 25.16 7.5 45.5 50 -2.2 28
13:45 1022 30.18 852 25.16 7.5 45.5 50 -2.1 28.2
13:50 1022 30.18 852 25.16 7.5 45.5 51 -2.1 28.3
13:55 1022 30.18 852 25.16 7.4 45.3 50 -2.4 27.6
14:00 1022 30.18 852 25.16 7.6 45.6 50 -2.2 28
14:05 1022 30.18 852 25.16 7.3 45.1 50 -2.4 27.6
14:10 1022 30.18 852 25.16 8 46.4 48 -2.3 27.8
14:15 1022 30.18 851 25.13 8.2 46.8 46 -2.5 27.4
14:20 1022 30.18 851 25.13 8.1 46.6 47 -2.6 27.3
14:25 1022 30.18 851 25.13 8.3 47 46 -2.5 27.5
14:30 1022 30.18 851 25.13 8.6 47.4 46 -2.3 27.9
14:35 1022 30.18 851 25.13 8.6 47.5 44 -3.1 26.5
14:40 1022 30.18 851 25.13 8.3 47 45 -3 26.6
14:45 1022 30.18 851 25.13 8.4 47.1 45 -2.8 26.9
14:50 1022 30.18 851 25.13 8.3 46.9 45 -3 26.6
14:55 1022 30.18 852 25.16 8.4 47.1 44 -3.2 26.2
15:00 1022 30.18 852 25.16 8.4 47.2 44 -3 26.5
15:05 1022 30.18 852 25.16 8.4 47 45 -3 26.7
15:10 1022 30.18 852 25.16 8.2 46.7 46 -2.7 27.1
15:15 1022 30.18 852 25.16 8 46.3 45 -3.2 26.3
15:20 1022 30.18 852 25.16 8 46.4 45 -3.1 26.4
15:25 1022 30.18 851 25.13 8.3 47 44 -3.1 26.5
15:30 1022 30.18 851 25.13 8.4 47.1 45 -2.9 26.8
15:35 1022 30.18 851 25.13 8.4 47 44 -3.1 26.4
15:40 1022 30.18 851 25.13 8.4 47.1 45 -3 26.7
15:45 1022 30.18 852 25.16 8.5 47.2 44 -3 26.6
15:50 1022 30.18 852 25.16 8.4 47 44 -3.1 26.5
15:55 1022 30.18 852 25.16 8.3 47 45 -2.9 26.8
16:00 1022 30.18 852 25.16 8.3 47 45 -2.8 27
16:05 1023 30.21 852 25.16 8.4 47 45 -2.7 27.1
16:10 1023 30.21 852 25.16 8.3 46.9 46 -2.5 27.5
16:15 1023 30.21 852 25.16 8.1 46.6 47 -2.6 27.3
16:20 1023 30.21 852 25.16 8.3 46.9 47 -2.5 27.6
16:25 1023 30.21 852 25.16 8.2 46.7 47 -2.4 27.6
16:30 1023 30.21 852 25.16 8.2 46.8 47 -2.5 27.5
16:35 1023 30.21 852 25.16 8.1 46.6 47 -2.4 27.7
16:40 1023 30.21 852 25.16 8.2 46.8 47 -2.5 27.5
16:45 1023 30.21 852 25.16 8.2 46.7 45 -3.1 26.4
16:50 1023 30.21 852 25.16 7.8 46 43 -4 24.7
16:55 1023 30.21 852 25.16 7.5 45.5 44 -4 24.8
17:00 1023 30.21 852 25.16 7.4 45.3 44 -4 24.8
17:05 1023 30.21 852 25.16 7.3 45.2 44 -4 24.8
17:10 1023 30.21 852 25.16 7.2 44.9 44 -4.2 24.4
17:15 1023 30.21 852 25.16 7.1 44.7 43 -4.5 23.9
17:20 1023 30.21 852 25.16 7 44.5 44 -4.3 24.2
17:25 1023 30.21 852 25.16 6.9 44.4 44 -4.4 24.1
17:30 1023 30.21 853 25.19 6.8 44.2 45 -4.3 24.3
17:35 1023 30.21 853 25.19 6.7 44 45 -4.4 24
17:40 1023 30.21 853 25.19 6.5 43.7 46 -4.3 24.2
17:45 1023 30.21 853 25.19 6.3 43.4 46 -4.5 23.9
17:50 1024 30.24 853 25.19 6.2 43.2 45 -4.8 23.4
17:55 1024 30.24 853 25.19 6.1 43 45 -4.8 23.4
18:00 1024 30.24 853 25.19 6.1 42.9 45 -4.8 23.3
18:05 1024 30.24 853 25.19 6.1 43 46 -4.8 23.4
18:10 1024 30.24 853 25.19 6 42.8 45 -4.9 23.2
18:15 1024 30.24 853 25.19 5.9 42.6 45 -5 23
18:20 1024 30.24 853 25.19 5.9 42.5 46 -5 23.1
18:25 1024 30.24 853 25.19 5.7 42.3 46 -5 23
18:30 1024 30.24 853 25.19 5.6 42.1 46 -5.1 22.9
18:35 1024 30.24 854 25.22 5.5 41.9 46 -5.1 22.8
18:40 1024 30.24 854 25.22 5.4 41.7 46 -5.3 22.5
18:45 1025 30.27 854 25.22 5.3 41.5 46 -5.4 22.3
18:50 1025 30.27 854 25.22 5.2 41.4 46 -5.5 22
18:55 1025 30.27 854 25.22 5.2 41.3 46 -5.6 21.9
19:00 1025 30.27 854 25.22 5.1 41.2 45 -5.8 21.5
19:05 1025 30.27 854 25.22 5.1 41.2 45 -5.8 21.5
19:10 1025 30.27 854 25.22 5.1 41.1 45 -5.8 21.5
19:15 1025 30.27 854 25.22 5 41.1 45 -5.8 21.6
19:20 1025 30.27 854 25.22 5 41 45 -5.9 21.4
19:25 1025 30.27 854 25.22 4.9 40.8 45 -6 21.2
19:30 1025 30.27 854 25.22 4.8 40.7 45 -6.1 21
19:35 1025 30.27 854 25.22 4.8 40.7 45 -6.2 20.9
19:40 1025 30.27 854 25.22 4.7 40.5 46 -6 21.1
19:45 1025 30.27 854 25.22 4.7 40.4 46 -6 21.3
19:50 1025 30.27 855 25.25 4.6 40.3 46 -6 21.2
19:55 1025 30.27 855 25.25 4.6 40.2 46 -6 21.1
20:00 1025 30.27 855 25.25 4.5 40.1 46 -6.2 20.8
20:05 1026 30.3 855 25.25 4.5 40.1 46 -6 21.2
20:10 1026 30.3 855 25.25 4.5 40 47 -6 21.2
20:15 1026 30.3 855 25.25 4.5 40.1 46 -6.2 20.8
20:20 1026 30.3 855 25.25 4.5 40.1 46 -6.1 21
20:25 1026 30.3 855 25.25 4.4 39.9 46 -6.2 20.9
20:30 1026 30.3 855 25.25 4.4 39.8 46 -6.1 21
20:35 1026 30.3 855 25.25 4.4 39.9 45 -6.4 20.4
20:40 1026 30.3 855 25.25 4.4 39.8 46 -6.3 20.6
20:45 1026 30.3 855 25.25 4.3 39.7 47 -6 21.1
20:50 1026 30.3 855 25.25 4.2 39.5 49 -5.7 21.8
20:55 1026 30.3 855 25.25 4.1 39.4 48 -5.9 21.5
21:00 1026 30.3 855 25.25 4.1 39.3 48 -6 21.2
21:05 1026 30.3 855 25.25 4 39.2 47 -6.4 20.5
21:10 1026 30.3 855 25.25 4 39.3 46 -6.5 20.3
21:15 1026 30.3 855 25.25 4.1 39.3 46 -6.4 20.5
21:20 1026 30.3 855 25.25 4 39.2 47 -6.3 20.6
21:25 1026 30.3 855 25.25 3.9 39.1 47 -6.3 20.7
21:30 1026 30.3 855 25.25 3.9 39 47 -6.5 20.3
21:35 1026 30.3 856 25.28 3.9 39 47 -6.6 20.2
21:40 1026 30.3 856 25.28 3.9 39 45 -6.9 19.5
21:45 1026 30.3 856 25.28 3.9 39 45 -6.9 19.5
21:50 1026 30.3 856 25.28 3.8 38.8 44 -7.3 18.8
21:55 1026 30.3 856 25.28 3.8 38.8 45 -7.2 19
22:00 1026 30.3 856 25.28 3.7 38.6 44 -7.4 18.7
22:05 1027 30.33 856 25.28 3.6 38.6 44 -7.4 18.6
22:10 1027 30.33 856 25.28 3.6 38.4 44 -7.6 18.4
22:15 1027 30.33 856 25.28 3.6 38.4 44 -7.6 18.2
22:20 1027 30.33 856 25.28 3.6 38.5 43 -7.7 18.1
22:25 1027 30.33 856 25.28 3.6 38.4 43 -7.9 17.7
22:30 1027 30.33 856 25.28 3.6 38.4 43 -8 17.5
22:35 1027 30.33 856 25.28 3.6 38.4 42 -8.2 17.2
22:40 1027 30.33 856 25.28 3.6 38.4 42 -8.1 17.4
22:45 1027 30.33 856 25.28 3.6 38.5 42 -8.3 17.1
22:50 1027 30.33 856 25.28 3.6 38.4 42 -8.1 17.4
22:55 1027 30.33 856 25.28 3.5 38.3 42 -8.2 17.2
23:00 1027 30.33 856 25.28 3.4 38.1 42 -8.3 17.1
23:05 1027 30.33 856 25.28 3.4 38.1 43 -8.1 17.5
23:10 1027 30.33 856 25.28 3.3 38 42 -8.3 17.1
23:15 1027 30.33 856 25.28 3.3 38 42 -8.3 17.1
23:20 1027 30.33 856 25.28 3.3 37.9 42 -8.3 17.1
23:25 1027 30.33 856 25.28 3.2 37.8 43 -8.3 17.1
23:30 1027 30.33 856 25.28 3.2 37.7 43 -8.2 17.3
23:35 1027 30.33 856 25.28 3.1 37.6 43 -8.1 17.4
23:40 1027 30.33 856 25.28 3 37.5 43 -8.2 17.2
23:45 1027 30.33 856 25.28 3 37.3 44 -8.2 17.2
23:50 1027 30.33 856 25.28 2.9 37.2 44 -8.2 17.3
23:55 1027 30.33 856 25.28 2.8 37.1 45 -8.1 17.4
24:00 1027 30.33 856 25.28 2.7 36.9 45 -8.1 17.5